Time;durP1;ratioP1;P1;durP2;ratioP2;P2;SDS_P1;SDS_P2;PMS_P1;PMS_P2;Temp;Humidity;BMP_temperature;BMP_pressure;BME280_temperature;BME280_humidity;BME280_pressure;Samples;Min_cycle;Max_cycle;Signal;HPM_P1;HPM_P2
2023/09/11 00:00:27;;;;;;;14.77;12.40;;;24.60;85.60;;;;;;4955331;28;20121;-81
2023/09/11 00:02:53;;;;;;;14.63;12.25;;;24.60;85.70;;;;;;4973573;28;20404;-82
2023/09/11 00:05:18;;;;;;;19.05;13.05;;;24.50;85.70;;;;;;4973023;28;20031;-81
2023/09/11 00:07:44;;;;;;;16.30;13.30;;;24.50;85.80;;;;;;4973684;28;20035;-82
2023/09/11 00:10:10;;;;;;;17.58;13.77;;;24.50;85.90;;;;;;4956349;28;20133;-82
2023/09/11 00:12:35;;;;;;;15.80;13.25;;;24.50;86.00;;;;;;4973778;28;20393;-81
2023/09/11 00:15:01;;;;;;;16.85;14.15;;;24.50;86.10;;;;;;4973898;28;20432;-82
2023/09/11 00:17:27;;;;;;;21.55;14.73;;;24.40;86.10;;;;;;4973346;28;20554;-82
2023/09/11 00:19:53;;;;;;;20.15;13.52;;;24.40;86.20;;;;;;4973453;28;20115;-82
2023/09/11 00:22:19;;;;;;;15.02;12.73;;;24.40;86.40;;;;;;4973859;28;20070;-80
2023/09/11 00:24:44;;;;;;;17.10;13.32;;;24.30;86.40;;;;;;4973305;28;20408;-81
2023/09/11 00:27:10;;;;;;;16.35;13.18;;;24.30;86.40;;;;;;4973890;28;20027;-81
2023/09/11 00:29:36;;;;;;;19.02;15.00;;;24.30;86.40;;;;;;4973721;28;20039;-81
2023/09/11 00:32:02;;;;;;;17.33;14.13;;;24.30;86.50;;;;;;4973524;28;20023;-81
2023/09/11 00:34:29;;;;;;;19.77;14.38;;;24.30;86.60;;;;;;4956305;28;20027;-81
2023/09/11 00:36:55;;;;;;;16.63;13.30;;;24.30;86.70;;;;;;4973784;28;20100;-81
2023/09/11 00:39:20;;;;;;;19.90;14.15;;;24.20;86.80;;;;;;4973377;28;20488;-80
2023/09/11 00:41:46;;;;;;;17.42;13.20;;;24.20;86.90;;;;;;4973474;28;20054;-81
2023/09/11 00:44:12;;;;;;;16.17;14.07;;;24.20;87.00;;;;;;4973349;28;20201;-81
2023/09/11 00:46:37;;;;;;;17.77;13.35;;;24.10;87.10;;;;;;4973608;28;20057;-81
2023/09/11 00:49:03;;;;;;;19.38;14.73;;;24.10;87.20;;;;;;4973118;28;20033;-82
2023/09/11 00:51:29;;;;;;;17.02;12.88;;;24.10;87.30;;;;;;4971996;28;20122;-81
2023/09/11 00:53:55;;;;;;;16.85;14.15;;;24.10;87.30;;;;;;4973409;28;20041;-81
2023/09/11 00:56:20;;;;;;;17.77;14.70;;;24.10;87.50;;;;;;4955746;28;20051;-81
2023/09/11 00:58:47;;;;;;;21.35;13.45;;;24.00;87.50;;;;;;4956080;28;20027;-81
2023/09/11 01:01:12;;;;;;;16.27;14.63;;;24.10;87.70;;;;;;4977286;28;20027;-80
2023/09/11 01:03:38;;;;;;;17.88;13.93;;;24.00;87.60;;;;;;4959948;28;20105;-81
2023/09/11 01:06:04;;;;;;;19.42;14.63;;;24.00;87.80;;;;;;4977680;28;20023;-81
2023/09/11 01:08:30;;;;;;;15.77;13.23;;;23.90;87.80;;;;;;4977354;28;20477;-81
2023/09/11 01:10:56;;;;;;;18.92;14.32;;;23.90;87.90;;;;;;4977102;28;20130;-81
2023/09/11 01:13:23;;;;;;;20.95;14.32;;;24.00;88.00;;;;;;4959602;28;20496;-80
2023/09/11 01:16:18;;;;;;;17.58;13.48;;;23.90;88.00;;;;;;4959644;28;20112;-82
2023/09/11 01:18:46;;;;;;;17.05;13.95;;;23.90;88.20;;;;;;4976713;28;20109;-81
2023/09/11 01:21:35;;;;;;;18.67;14.00;;;23.90;88.20;;;;;;4976904;28;20108;-81
2023/09/11 01:24:12;;;;;;;17.80;12.98;;;23.80;88.20;;;;;;4975555;28;20108;-80
2023/09/11 01:26:47;;;;;;;17.65;13.93;;;23.80;88.20;;;;;;4976738;28;20030;-81
2023/09/11 01:29:20;;;;;;;19.50;15.50;;;23.80;88.20;;;;;;4976685;28;20035;-81
2023/09/11 01:31:47;;;;;;;17.48;13.80;;;23.70;88.30;;;;;;4976493;28;20031;-81
2023/09/11 01:34:13;;;;;;;17.00;13.93;;;23.70;88.40;;;;;;4976651;28;20034;-81
2023/09/11 01:36:39;;;;;;;18.83;14.73;;;23.70;88.50;;;;;;4976792;28;20251;-81
2023/09/11 01:39:05;;;;;;;19.30;15.18;;;23.70;88.70;;;;;;4976704;28;20563;-81
2023/09/11 01:41:34;;;;;;;20.77;14.50;;;23.70;88.80;;;;;;4976534;28;20027;-81
2023/09/11 01:44:09;;;;;;;17.40;14.07;;;23.60;88.80;;;;;;4976791;28;20493;-81
2023/09/11 01:46:35;;;;;;;17.55;13.95;;;23.60;88.80;;;;;;4976214;28;20084;-81
2023/09/11 01:49:02;;;;;;;18.58;13.40;;;23.60;88.90;;;;;;4975897;28;20109;-82
2023/09/11 01:51:30;;;;;;;20.23;14.02;;;23.60;89.00;;;;;;4976456;28;20041;-81
2023/09/11 01:53:57;;;;;;;19.42;14.48;;;23.60;89.10;;;;;;4976050;28;20027;-81
2023/09/11 01:56:23;;;;;;;18.30;14.27;;;23.60;89.10;;;;;;4980686;28;20026;-81
2023/09/11 01:58:49;;;;;;;21.45;14.25;;;23.60;89.20;;;;;;4975355;28;20026;-81
2023/09/11 02:01:14;;;;;;;20.63;15.60;;;23.50;89.20;;;;;;4974939;28;20031;-81
2023/09/11 02:03:40;;;;;;;16.63;14.50;;;23.50;89.20;;;;;;4974484;28;20250;-81
2023/09/11 02:06:06;;;;;;;17.40;14.05;;;23.50;89.40;;;;;;4975330;28;20085;-81
2023/09/11 02:08:32;;;;;;;22.00;14.85;;;23.50;89.40;;;;;;4974779;28;20168;-81
2023/09/11 02:10:57;;;;;;;17.33;13.95;;;23.60;89.50;;;;;;4974404;28;20049;-80
2023/09/11 02:13:23;;;;;;;17.73;14.73;;;23.50;89.50;;;;;;4975693;28;20645;-81
2023/09/11 02:15:48;;;;;;;18.75;13.82;;;23.50;89.60;;;;;;4958672;28;20445;-81
2023/09/11 02:18:14;;;;;;;22.60;15.48;;;23.50;89.70;;;;;;4975753;28;20408;-81
2023/09/11 02:20:39;;;;;;;22.38;15.43;;;23.40;89.70;;;;;;4975931;28;20026;-81
2023/09/11 02:23:05;;;;;;;16.50;13.98;;;23.40;89.80;;;;;;4975742;28;20105;-81
2023/09/11 02:25:31;;;;;;;18.85;15.20;;;23.40;89.80;;;;;;4975737;28;20034;-81
2023/09/11 02:27:56;;;;;;;19.50;14.75;;;23.40;89.90;;;;;;4975348;28;20027;-81
2023/09/11 02:30:22;;;;;;;17.08;13.68;;;23.40;89.90;;;;;;4957824;28;20186;-81
2023/09/11 02:32:47;;;;;;;22.95;15.30;;;23.40;89.90;;;;;;4975286;28;20058;-81
2023/09/11 02:35:13;;;;;;;20.50;14.68;;;23.30;89.90;;;;;;4975423;28;20113;-81
2023/09/11 02:37:38;;;;;;;20.08;14.90;;;23.30;89.90;;;;;;4975731;28;20037;-81
2023/09/11 02:40:05;;;;;;;18.83;13.57;;;23.20;90.00;;;;;;4975433;28;20037;-81
2023/09/11 02:42:30;;;;;;;20.38;14.57;;;23.30;90.10;;;;;;4975428;28;20026;-81
2023/09/11 02:44:56;;;;;;;17.90;14.15;;;23.30;90.20;;;;;;4975415;28;20053;-81
2023/09/11 02:47:21;;;;;;;18.48;15.30;;;23.20;90.30;;;;;;4975154;28;20398;-81
2023/09/11 02:49:47;;;;;;;17.27;14.75;;;23.20;90.30;;;;;;4974943;28;20117;-81
2023/09/11 02:52:12;;;;;;;23.35;14.65;;;23.20;90.20;;;;;;4975237;28;20093;-82
2023/09/11 02:54:38;;;;;;;17.55;14.65;;;23.10;90.30;;;;;;4974954;28;20027;-80
2023/09/11 02:57:04;;;;;;;16.58;14.70;;;23.20;90.30;;;;;;4975213;28;20026;-81
2023/09/11 02:59:29;;;;;;;17.95;14.70;;;23.10;90.30;;;;;;4975280;28;20041;-81
2023/09/11 03:01:55;;;;;;;17.67;14.68;;;23.10;90.30;;;;;;4975085;28;20432;-81
2023/09/11 03:04:20;;;;;;;23.08;15.68;;;23.10;90.40;;;;;;4975103;28;20035;-82
2023/09/11 03:06:46;;;;;;;19.08;15.52;;;23.00;90.40;;;;;;4973777;28;20073;-81
2023/09/11 03:09:11;;;;;;;22.35;15.50;;;23.00;90.40;;;;;;4957230;28;20035;-81
2023/09/11 03:11:37;;;;;;;19.42;15.75;;;23.00;90.50;;;;;;4957102;28;20327;-81
2023/09/11 03:14:03;;;;;;;20.13;15.43;;;22.90;90.60;;;;;;4974747;28;20409;-80
2023/09/11 03:16:28;;;;;;;21.85;15.65;;;22.90;90.60;;;;;;4974812;28;20118;-81
2023/09/11 03:18:54;;;;;;;21.33;15.65;;;22.90;90.60;;;;;;4973696;28;20031;-81
2023/09/11 03:21:19;;;;;;;21.17;15.65;;;22.90;90.60;;;;;;4974754;28;20033;-81
2023/09/11 03:23:45;;;;;;;23.20;17.35;;;22.90;90.70;;;;;;4974222;28;20051;-81
2023/09/11 03:26:15;;;;;;;24.50;16.13;;;22.90;90.70;;;;;;4956859;28;20113;-82
2023/09/11 03:28:46;;;;;;;16.92;14.77;;;22.80;90.70;;;;;;4957247;28;20093;-81
2023/09/11 03:31:11;;;;;;;21.63;15.35;;;22.80;90.80;;;;;;4973171;28;20038;-81
2023/09/11 03:33:37;;;;;;;19.27;15.10;;;22.80;90.80;;;;;;4974561;28;20099;-81
2023/09/11 03:36:03;;;;;;;18.83;16.20;;;22.80;90.90;;;;;;4956766;28;20022;-81
2023/09/11 03:38:29;;;;;;;19.05;15.80;;;22.80;90.90;;;;;;4974294;28;20023;-81
2023/09/11 03:40:55;;;;;;;21.20;16.20;;;22.70;90.90;;;;;;4972781;28;20508;-81
2023/09/11 03:43:21;;;;;;;20.42;15.45;;;22.70;91.00;;;;;;4956918;28;20043;-81
2023/09/11 03:45:47;;;;;;;20.60;15.95;;;22.70;91.00;;;;;;4974348;28;20500;-81
2023/09/11 03:48:12;;;;;;;19.20;16.20;;;22.70;91.10;;;;;;4974033;28;20121;-82
2023/09/11 03:50:38;;;;;;;20.75;17.35;;;22.60;91.10;;;;;;4973900;28;20035;-81
2023/09/11 03:53:03;;;;;;;20.73;15.55;;;22.60;91.10;;;;;;4974096;28;20114;-81
2023/09/11 03:55:29;;;;;;;19.20;16.42;;;22.60;91.20;;;;;;4972829;28;20022;-80
2023/09/11 03:57:55;;;;;;;25.40;16.52;;;22.60;91.20;;;;;;4973956;28;20031;-81
2023/09/11 04:00:20;;;;;;;18.50;16.48;;;22.60;91.30;;;;;;4956505;28;20085;-80
2023/09/11 04:02:46;;;;;;;19.45;16.75;;;22.50;91.30;;;;;;4956816;28;20440;-81
2023/09/11 04:05:11;;;;;;;23.13;17.70;;;22.50;91.40;;;;;;4973892;28;20469;-80
2023/09/11 04:07:37;;;;;;;21.88;16.73;;;22.50;91.40;;;;;;4974787;28;20500;-81
2023/09/11 04:10:03;;;;;;;18.83;16.20;;;22.50;91.50;;;;;;4974491;28;20042;-81
2023/09/11 04:12:28;;;;;;;20.38;17.02;;;22.50;91.50;;;;;;4992898;28;20080;-81
2023/09/11 04:14:54;;;;;;;22.48;15.88;;;22.50;91.60;;;;;;4992459;28;20022;-80
2023/09/11 04:17:19;;;;;;;20.65;16.67;;;22.50;91.60;;;;;;4992542;28;20030;-80
2023/09/11 04:19:45;;;;;;;20.30;16.92;;;22.40;91.60;;;;;;4991910;28;20072;-80
2023/09/11 04:22:11;;;;;;;21.58;16.67;;;22.30;91.60;;;;;;4991849;28;20029;-81
2023/09/11 04:24:36;;;;;;;20.98;17.75;;;22.40;91.70;;;;;;4990970;28;20082;-81
2023/09/11 04:27:02;;;;;;;21.17;17.98;;;22.30;91.70;;;;;;4992810;28;20037;-81
2023/09/11 04:29:33;;;;;;;20.48;17.33;;;22.30;91.80;;;;;;4992307;28;20410;-82
2023/09/11 04:31:59;;;;;;;22.25;17.40;;;22.30;91.80;;;;;;4975881;28;20057;-81
2023/09/11 04:34:25;;;;;;;23.75;18.08;;;22.30;91.90;;;;;;4992793;28;20061;-81
2023/09/11 04:36:51;;;;;;;20.75;16.88;;;22.30;91.90;;;;;;4993254;28;20033;-81
2023/09/11 04:39:17;;;;;;;20.80;18.40;;;22.20;91.90;;;;;;4993248;28;20022;-82
2023/09/11 04:41:42;;;;;;;19.63;17.13;;;22.20;92.00;;;;;;5005669;28;20035;-81
2023/09/11 04:44:08;;;;;;;21.35;17.88;;;22.20;92.10;;;;;;5000387;28;20031;-81
2023/09/11 04:46:34;;;;;;;21.02;18.25;;;22.20;92.20;;;;;;4999640;28;20037;-83
2023/09/11 04:48:59;;;;;;;25.70;18.35;;;22.10;92.20;;;;;;5000523;28;20034;-81
2023/09/11 04:51:25;;;;;;;20.52;18.20;;;22.10;92.20;;;;;;4998670;28;20065;-81
2023/09/11 04:53:51;;;;;;;26.08;17.77;;;22.10;92.30;;;;;;5003630;28;20033;-81
2023/09/11 04:56:16;;;;;;;22.58;18.10;;;22.10;92.30;;;;;;5004815;28;20050;-80
2023/09/11 04:58:42;;;;;;;20.88;18.00;;;22.10;92.40;;;;;;4976710;28;20029;-81
2023/09/11 05:01:10;;;;;;;26.67;18.27;;;22.10;92.40;;;;;;4976104;28;20169;-82
2023/09/11 05:03:37;;;;;;;20.45;17.65;;;22.10;92.50;;;;;;4976491;28;20550;-81
2023/09/11 05:06:03;;;;;;;22.27;18.38;;;22.10;92.50;;;;;;4976812;28;20073;-81
2023/09/11 05:08:28;;;;;;;23.90;18.35;;;22.00;92.50;;;;;;4993550;28;20027;-82
2023/09/11 05:10:54;;;;;;;21.85;18.17;;;22.00;92.50;;;;;;4992153;28;20043;-82
2023/09/11 05:13:20;;;;;;;21.10;17.08;;;22.00;92.60;;;;;;4975529;28;20113;-81
2023/09/11 05:15:48;;;;;;;21.08;17.80;;;22.00;92.60;;;;;;4993107;28;20118;-83
2023/09/11 05:18:14;;;;;;;22.88;17.48;;;22.00;92.60;;;;;;4993256;28;20109;-80
2023/09/11 05:20:40;;;;;;;22.83;18.13;;;22.00;92.70;;;;;;4992818;28;20030;-81
2023/09/11 05:23:06;;;;;;;22.52;18.50;;;22.00;92.80;;;;;;4992458;28;20370;-81
2023/09/11 05:25:31;;;;;;;20.58;18.27;;;22.00;92.90;;;;;;4992682;28;20031;-81
2023/09/11 05:27:57;;;;;;;21.05;17.58;;;22.00;92.90;;;;;;4975537;28;20040;-81
2023/09/11 05:30:23;;;;;;;21.77;17.83;;;22.10;93.00;;;;;;4976334;28;20389;-82
2023/09/11 05:32:51;;;;;;;21.88;18.10;;;21.90;93.00;;;;;;4975190;28;20034;-83
2023/09/11 05:35:18;;;;;;;23.60;17.95;;;22.00;93.00;;;;;;4974725;28;20026;-83
2023/09/11 05:37:43;;;;;;;21.38;17.95;;;22.00;93.00;;;;;;4991950;28;20030;-83
2023/09/11 05:40:09;;;;;;;20.85;17.67;;;22.00;93.00;;;;;;4992483;28;20081;-83
2023/09/11 05:42:35;;;;;;;20.40;18.17;;;22.00;93.10;;;;;;4992811;28;20070;-82
2023/09/11 05:45:00;;;;;;;21.83;18.40;;;22.00;93.10;;;;;;4992995;28;20484;-82
2023/09/11 05:47:26;;;;;;;22.85;17.95;;;22.00;93.10;;;;;;4979124;28;20084;-83
2023/09/11 05:49:52;;;;;;;20.67;17.08;;;22.00;93.20;;;;;;4996902;28;20027;-83
2023/09/11 05:52:18;;;;;;;25.48;16.80;;;22.00;93.20;;;;;;4978877;28;20153;-84
2023/09/11 05:54:43;;;;;;;22.35;18.25;;;22.00;93.30;;;;;;4978427;28;20373;-84
2023/09/11 05:57:09;;;;;;;22.65;18.13;;;22.00;93.30;;;;;;4994609;28;20030;-85
2023/09/11 05:59:34;;;;;;;22.52;17.73;;;22.00;93.30;;;;;;4995788;28;20023;-85
2023/09/11 06:02:00;;;;;;;24.60;18.33;;;22.00;93.30;;;;;;4978106;28;20460;-85
2023/09/11 06:04:26;;;;;;;18.27;16.38;;;22.00;93.40;;;;;;4995084;28;20030;-83
2023/09/11 06:06:53;;;;;;;19.42;17.25;;;22.10;93.40;;;;;;4995715;28;20461;-84
2023/09/11 06:09:18;;;;;;;21.02;16.75;;;22.10;93.40;;;;;;4995706;28;20085;-85
2023/09/11 06:11:44;;;;;;;22.30;17.40;;;22.10;93.40;;;;;;4995754;28;20034;-85
2023/09/11 06:14:10;;;;;;;23.50;16.10;;;22.10;93.50;;;;;;4977512;28;20027;-85
2023/09/11 06:16:35;;;;;;;21.08;17.27;;;22.20;93.50;;;;;;4996194;28;20025;-84
2023/09/11 06:19:01;;;;;;;24.95;18.48;;;22.20;93.50;;;;;;4995518;28;20037;-85
2023/09/11 06:21:27;;;;;;;21.50;18.42;;;22.20;93.60;;;;;;4995500;28;20026;-85
2023/09/11 06:23:52;;;;;;;20.65;16.70;;;22.30;93.60;;;;;;4995744;28;20533;-84
2023/09/11 06:26:18;;;;;;;19.83;16.80;;;22.20;93.60;;;;;;4995718;28;20030;-85
2023/09/11 06:28:44;;;;;;;22.27;15.63;;;22.30;93.60;;;;;;4995512;28;20078;-85
2023/09/11 06:31:10;;;;;;;19.08;16.15;;;22.30;93.60;;;;;;4995270;28;20042;-83
2023/09/11 06:33:36;;;;;;;19.60;16.05;;;22.30;93.60;;;;;;4977566;28;20022;-85
2023/09/11 06:36:02;;;;;;;17.17;14.60;;;22.40;93.60;;;;;;4995520;28;20519;-85
2023/09/11 06:38:28;;;;;;;18.58;14.77;;;22.50;93.50;;;;;;4995353;28;20034;-86
2023/09/11 06:40:54;;;;;;;16.77;13.98;;;22.40;93.40;;;;;;4977348;28;20488;-85
2023/09/11 06:43:20;;;;;;;19.52;14.20;;;22.50;93.30;;;;;;4994407;28;20093;-86
2023/09/11 06:45:46;;;;;;;17.15;13.77;;;22.50;93.20;;;;;;4977586;28;20558;-86
2023/09/11 06:48:12;;;;;;;18.92;13.77;;;22.60;93.20;;;;;;4977739;28;20023;-85
2023/09/11 06:50:41;;;;;;;17.67;11.85;;;22.60;93.00;;;;;;4976926;28;20029;-81
2023/09/11 06:53:08;;;;;;;16.50;12.70;;;22.80;93.00;;;;;;4995552;28;20109;-84
2023/09/11 06:55:34;;;;;;;16.55;12.45;;;22.80;92.80;;;;;;4978119;28;20033;-85
2023/09/11 06:58:01;;;;;;;17.75;12.38;;;22.90;92.70;;;;;;4977856;28;20018;-85
2023/09/11 07:00:27;;;;;;;17.23;12.13;;;22.90;92.60;;;;;;4995854;28;20476;-86
2023/09/11 07:02:53;;;;;;;16.55;11.10;;;23.00;92.40;;;;;;4995862;28;20040;-87
2023/09/11 07:05:20;;;;;;;13.85;11.25;;;23.00;92.20;;;;;;4996528;28;20033;-86
2023/09/11 07:07:46;;;;;;;17.98;11.55;;;23.00;92.00;;;;;;4995578;28;20041;-87
2023/09/11 07:10:19;;;;;;;17.42;11.32;;;23.00;91.70;;;;;;4994751;28;20035;-87
2023/09/11 07:12:46;;;;;;;13.32;10.38;;;23.10;91.60;;;;;;4992088;28;20024;-87
2023/09/11 07:15:11;;;;;;;12.68;9.02;;;23.10;91.30;;;;;;4994914;28;20031;-89
2023/09/11 07:17:37;;;;;;;16.30;10.88;;;23.10;91.20;;;;;;4995897;28;20524;-86
2023/09/11 07:20:04;;;;;;;15.90;10.80;;;23.10;90.90;;;;;;4996080;28;20034;-87
2023/09/11 07:22:30;;;;;;;17.00;9.93;;;23.10;90.80;;;;;;4995152;28;20060;-83
2023/09/11 07:24:56;;;;;;;13.60;9.32;;;23.20;90.60;;;;;;4977452;28;20030;-87
2023/09/11 07:27:22;;;;;;;12.70;10.02;;;23.20;90.50;;;;;;4977586;28;20452;-87
2023/09/11 07:29:49;;;;;;;13.80;11.45;;;23.20;90.30;;;;;;4995543;28;20034;-87
2023/09/11 07:32:14;;;;;;;13.93;10.23;;;23.20;90.20;;;;;;4995855;28;20030;-88
2023/09/11 07:34:40;;;;;;;17.58;10.65;;;23.30;90.10;;;;;;4995439;28;20085;-86
2023/09/11 07:37:06;;;;;;;14.93;10.70;;;23.30;90.00;;;;;;4994876;28;20034;-84
2023/09/11 07:39:31;;;;;;;17.10;11.40;;;23.30;90.00;;;;;;4994290;28;20030;-84
2023/09/11 07:41:58;;;;;;;14.88;9.90;;;23.30;89.90;;;;;;4993689;28;20166;-84
2023/09/11 07:44:23;;;;;;;18.15;11.65;;;23.30;89.60;;;;;;4976013;28;20034;-84
2023/09/11 07:46:49;;;;;;;13.52;10.38;;;23.40;89.50;;;;;;4993760;28;20022;-84
2023/09/11 07:49:14;;;;;;;15.98;10.55;;;23.50;89.30;;;;;;4993588;28;20030;-82
2023/09/11 07:51:40;;;;;;;18.17;10.85;;;23.60;89.20;;;;;;4993893;28;20026;-84
2023/09/11 07:54:06;;;;;;;16.58;11.38;;;23.50;88.70;;;;;;4993936;28;20113;-85
2023/09/11 07:56:33;;;;;;;13.52;10.57;;;23.60;88.70;;;;;;4993580;28;20030;-85
2023/09/11 07:59:00;;;;;;;15.52;10.43;;;23.60;88.50;;;;;;4993870;28;20030;-84
2023/09/11 08:01:26;;;;;;;15.02;11.00;;;23.60;88.40;;;;;;4993780;28;20041;-84
2023/09/11 08:03:51;;;;;;;18.17;10.48;;;23.60;88.30;;;;;;4994355;28;20472;-84
2023/09/11 08:06:18;;;;;;;16.65;10.45;;;23.70;88.20;;;;;;4993829;28;20033;-83
2023/09/11 08:08:44;;;;;;;12.85;10.05;;;23.70;88.10;;;;;;4976404;28;20093;-84
2023/09/11 08:11:15;;;;;;;16.40;10.98;;;23.70;87.60;;;;;;4993888;28;20495;-84
2023/09/11 08:13:42;;;;;;;17.48;10.60;;;23.80;87.40;;;;;;4976618;28;20023;-84
2023/09/11 08:16:08;;;;;;;19.45;10.95;;;23.80;87.20;;;;;;4993480;28;20504;-85
2023/09/11 08:18:34;;;;;;;15.18;10.45;;;23.80;87.00;;;;;;4975699;28;20157;-85
2023/09/11 08:20:59;;;;;;;13.90;10.23;;;23.80;87.00;;;;;;4992878;28;20030;-85
2023/09/11 08:23:25;;;;;;;16.38;10.10;;;23.90;86.90;;;;;;4993101;28;20057;-84
2023/09/11 08:25:58;;;;;;;18.73;10.13;;;24.00;86.70;;;;;;4993305;28;20018;-86
2023/09/11 08:28:24;;;;;;;17.42;10.88;;;24.00;86.60;;;;;;4993210;28;20049;-85
2023/09/11 08:30:52;;;;;;;15.45;10.10;;;24.00;86.30;;;;;;4993949;28;20030;-84
2023/09/11 08:33:19;;;;;;;15.13;10.15;;;24.10;86.20;;;;;;4976632;28;20018;-87
2023/09/11 08:35:44;;;;;;;15.73;10.85;;;24.10;86.00;;;;;;4977699;28;20110;-85
2023/09/11 08:38:10;;;;;;;23.17;11.38;;;24.10;85.80;;;;;;4977225;28;20060;-85
2023/09/11 08:40:36;;;;;;;17.00;11.25;;;24.20;85.70;;;;;;4994705;28;20742;-85
2023/09/11 08:43:02;;;;;;;13.60;9.10;;;24.30;85.50;;;;;;4994304;28;20073;-91
2023/09/11 08:45:28;;;;;;;14.70;10.13;;;24.30;85.20;;;;;;4977601;28;20074;-84
2023/09/11 08:47:58;;;;;;;14.57;10.32;;;24.40;85.10;;;;;;4979295;28;20029;-85
2023/09/11 08:50:35;;;;;;;14.05;10.65;;;24.40;84.80;;;;;;4976571;28;20045;-86
2023/09/11 08:53:01;;;;;;;15.30;10.48;;;24.50;84.90;;;;;;4976981;28;20035;-84
2023/09/11 08:55:33;;;;;;;17.58;9.90;;;24.50;84.90;;;;;;4994024;28;20026;-89
2023/09/11 08:58:02;;;;;;;17.15;10.63;;;24.60;84.80;;;;;;4977013;28;20109;-85
2023/09/11 09:00:28;;;;;;;13.60;9.25;;;24.60;84.60;;;;;;4994414;28;20480;-84
2023/09/11 09:02:54;;;;;;;18.63;10.50;;;24.70;84.40;;;;;;4994188;28;20027;-88
2023/09/11 09:05:21;;;;;;;19.40;9.90;;;24.80;84.00;;;;;;4994411;28;20092;-83
2023/09/11 09:07:48;;;;;;;15.88;8.45;;;24.80;83.70;;;;;;4994202;28;20033;-84
2023/09/11 09:10:14;;;;;;;16.73;9.48;;;24.90;83.70;;;;;;4976609;28;20034;-82
2023/09/11 09:12:41;;;;;;;16.55;9.50;;;25.00;83.70;;;;;;4994565;28;20058;-84
2023/09/11 09:15:07;;;;;;;17.98;10.25;;;25.00;83.30;;;;;;4976641;28;20023;-83
2023/09/11 09:17:33;;;;;;;18.60;10.73;;;25.10;83.10;;;;;;5008865;28;20058;-84
2023/09/11 09:19:58;;;;;;;15.35;9.85;;;25.10;82.80;;;;;;4993841;28;20057;-83
2023/09/11 09:22:24;;;;;;;12.35;9.45;;;25.20;82.50;;;;;;4997838;28;20468;-84
2023/09/11 09:24:52;;;;;;;14.98;10.23;;;25.20;82.40;;;;;;4980475;28;20130;-83
2023/09/11 09:27:18;;;;;;;16.85;10.95;;;25.40;82.40;;;;;;4998344;28;20076;-85
2023/09/11 09:29:44;;;;;;;16.35;10.10;;;25.40;81.80;;;;;;4997317;28;20041;-84
2023/09/11 09:32:10;;;;;;;16.73;9.75;;;25.50;81.70;;;;;;4997702;28;20023;-86
2023/09/11 09:34:42;;;;;;;20.70;10.50;;;25.50;81.70;;;;;;4997704;28;20054;-86
2023/09/11 09:37:16;;;;;;;21.75;10.43;;;25.60;81.40;;;;;;4997405;28;20034;-84
2023/09/11 09:39:43;;;;;;;15.70;9.77;;;25.70;81.40;;;;;;4996874;28;20023;-84
2023/09/11 09:42:08;;;;;;;15.00;9.13;;;25.60;81.30;;;;;;4996840;28;20023;-84
2023/09/11 09:44:36;;;;;;;12.68;8.70;;;25.80;81.30;;;;;;4997726;28;20364;-86
2023/09/11 09:47:20;;;;;;;11.45;9.07;;;25.90;81.20;;;;;;4997205;28;20033;-84
2023/09/11 09:49:54;;;;;;;13.70;7.68;;;26.00;80.80;;;;;;4997111;28;20046;-83
2023/09/11 09:52:30;;;;;;;13.80;8.00;;;26.00;80.30;;;;;;4995486;28;20391;-82
2023/09/11 09:55:01;;;;;;;13.05;8.57;;;26.10;80.30;;;;;;4991951;28;20030;-84
2023/09/11 09:57:28;;;;;;;11.30;7.88;;;26.10;80.20;;;;;;4962849;28;20049;-82
2023/09/11 09:59:57;;;;;;;15.57;7.40;;;26.20;79.90;;;;;;4967539;28;20045;-82
2023/09/11 10:02:30;;;;;;;10.75;7.72;;;26.20;79.80;;;;;;4976395;28;20086;-82
2023/09/11 10:05:02;;;;;;;15.80;7.07;;;26.30;79.70;;;;;;4979311;28;20030;-84
2023/09/11 10:07:45;;;;;;;13.32;6.82;;;26.40;79.30;;;;;;4960285;28;20376;-86
2023/09/11 10:10:30;;;;;;;11.93;7.25;;;26.60;78.80;;;;;;4960229;28;20447;-82
2023/09/11 10:13:05;;;;;;;13.00;7.35;;;26.70;78.30;;;;;;4980368;28;20113;-83
2023/09/11 10:15:36;;;;;;;9.45;6.07;;;26.80;78.10;;;;;;4995395;28;20184;-87
2023/09/11 10:18:02;;;;;;;9.10;5.80;;;27.00;77.70;;;;;;4978212;28;20025;-88
2023/09/11 10:20:29;;;;;;;9.45;5.95;;;27.10;77.90;;;;;;4995403;28;20030;-83
2023/09/11 10:23:04;;;;;;;11.20;5.65;;;27.30;77.30;;;;;;4995474;28;20054;-87
2023/09/11 10:25:37;;;;;;;9.85;6.32;;;27.40;76.30;;;;;;4995410;28;20037;-86
2023/09/11 10:28:32;;;;;;;12.82;6.60;;;27.60;76.00;;;;;;4995779;28;20121;-83
2023/09/11 10:31:19;;;;;;;12.05;5.65;;;27.80;75.00;;;;;;4991354;28;20506;-84
2023/09/11 10:33:47;;;;;;;9.07;5.28;;;28.00;75.00;;;;;;4978263;28;20460;-83
2023/09/11 10:36:14;;;;;;;8.60;5.32;;;28.30;74.30;;;;;;4996977;28;20034;-85
2023/09/11 10:38:43;;;;;;;8.77;5.55;;;28.50;73.60;;;;;;4996278;28;20062;-83
2023/09/11 10:41:09;;;;;;;10.18;5.07;;;28.60;72.70;;;;;;4996779;28;20034;-84
2023/09/11 10:43:35;;;;;;;8.68;5.10;;;28.80;72.20;;;;;;4996287;28;20077;-84
2023/09/11 10:46:22;;;;;;;7.50;4.80;;;28.90;71.60;;;;;;4996461;28;20026;-86
2023/09/11 10:48:50;;;;;;;8.15;4.70;;;29.10;70.40;;;;;;4996490;28;20081;-86
2023/09/11 10:51:16;;;;;;;8.68;4.95;;;29.20;70.50;;;;;;4979403;28;20121;-84
2023/09/11 10:53:42;;;;;;;7.30;4.20;;;29.40;69.80;;;;;;4996158;28;20476;-88
2023/09/11 10:56:08;;;;;;;8.15;4.13;;;29.70;69.10;;;;;;4996171;28;20023;-85
2023/09/11 10:58:34;;;;;;;6.30;4.32;;;29.80;68.50;;;;;;4996262;28;20102;-84
2023/09/11 11:01:03;;;;;;;8.05;4.55;;;29.90;68.10;;;;;;4996264;28;20026;-83
2023/09/11 11:03:30;;;;;;;6.50;3.45;;;30.10;67.60;;;;;;4993874;28;20026;-83
2023/09/11 11:05:58;;;;;;;7.90;4.18;;;30.40;66.90;;;;;;4995523;28;20022;-82
2023/09/11 11:08:24;;;;;;;9.23;4.32;;;30.50;66.30;;;;;;4994751;28;20026;-87
2023/09/11 11:10:56;;;;;;;7.95;4.18;;;30.70;66.70;;;;;;4995015;28;20084;-85
2023/09/11 11:13:22;;;;;;;12.07;4.53;;;30.90;65.50;;;;;;4993924;28;20110;-84
2023/09/11 11:15:48;;;;;;;8.35;4.13;;;31.10;65.20;;;;;;4993608;28;20033;-83
2023/09/11 11:18:27;;;;;;;7.70;3.97;;;31.30;64.40;;;;;;4995856;28;20034;-88
2023/09/11 11:21:06;;;;;;;8.20;4.10;;;31.40;63.30;;;;;;4995234;28;20018;-83
2023/09/11 11:23:34;;;;;;;7.15;3.58;;;31.60;63.20;;;;;;4995181;28;20193;-90
2023/09/11 11:26:04;;;;;;;5.32;3.78;;;31.80;63.10;;;;;;4994801;28;20081;-86
2023/09/11 11:28:45;;;;;;;9.48;4.25;;;32.00;62.30;;;;;;4978605;28;20512;-84
2023/09/11 11:31:18;;;;;;;6.50;3.72;;;32.20;61.60;;;;;;4997847;28;20038;-82
2023/09/11 11:33:48;;;;;;;;;;;32.40;61.10;;;;;;5004663;28;20026;-87
2023/09/11 11:36:16;;;;;;;6.63;3.33;;;32.60;61.10;;;;;;5003122;28;19905;-86
2023/09/11 11:38:43;;;;;;;11.85;3.88;;;32.70;61.20;;;;;;5003133;28;20053;-87
2023/09/11 11:41:10;;;;;;;8.90;4.80;;;32.80;60.50;;;;;;5006501;28;20027;-83
2023/09/11 11:43:36;;;;;;;5.60;3.40;;;33.00;60.00;;;;;;5012619;28;20037;-86
2023/09/11 11:46:05;;;;;;;10.77;4.13;;;33.20;59.20;;;;;;5015530;28;20033;-82
2023/09/11 11:48:32;;;;;;;8.68;3.75;;;33.40;58.80;;;;;;5012120;28;20030;-88
2023/09/11 11:50:58;;;;;;;7.43;3.38;;;33.50;58.20;;;;;;5010318;28;20038;-84
2023/09/11 11:53:24;;;;;;;5.10;3.10;;;33.70;57.60;;;;;;5014801;28;20015;-82
2023/09/11 11:55:51;;;;;;;7.10;3.20;;;33.80;56.90;;;;;;5016669;28;20273;-82
2023/09/11 11:58:18;;;;;;;7.32;4.00;;;33.90;56.40;;;;;;5013838;28;20029;-84
2023/09/11 12:01:01;;;;;;;7.53;3.65;;;34.00;55.90;;;;;;5007253;28;20030;-83
2023/09/11 12:03:29;;;;;;;6.40;3.20;;;34.10;55.20;;;;;;5004611;28;20062;-87
2023/09/11 12:05:57;;;;;;;6.50;3.67;;;34.20;55.70;;;;;;4979823;28;20073;-86
2023/09/11 12:08:26;;;;;;;7.10;3.67;;;34.30;55.50;;;;;;4978503;28;20026;-83
2023/09/11 12:10:52;;;;;;;6.72;3.22;;;34.30;55.10;;;;;;4994245;28;20056;-83
2023/09/11 12:13:24;;;;;;;5.72;3.58;;;34.50;54.90;;;;;;4994381;28;20022;-83
2023/09/11 12:16:00;;;;;;;7.80;3.95;;;34.70;54.60;;;;;;4994428;28;20477;-86
2023/09/11 12:18:31;;;;;;;6.90;3.63;;;34.90;54.50;;;;;;4994482;28;20033;-86
2023/09/11 12:21:05;;;;;;;10.32;4.43;;;35.10;54.30;;;;;;4993163;28;20041;-86
2023/09/11 12:23:31;;;;;;;5.60;3.45;;;35.20;54.00;;;;;;4992752;28;20068;-89
2023/09/11 12:25:57;;;;;;;6.30;4.00;;;35.20;53.80;;;;;;4994179;28;20539;-85
2023/09/11 12:28:23;;;;;;;6.80;3.42;;;35.40;53.80;;;;;;4994081;28;20543;-87
2023/09/11 12:30:50;;;;;;;7.60;3.58;;;35.50;53.60;;;;;;4994552;28;20030;-84